Time;durP1;ratioP1;P1;durP2;ratioP2;P2;SDS_P1;SDS_P2;PMS_P1;PMS_P2;Temp;Humidity;BMP_temperature;BMP_pressure;BME280_temperature;BME280_humidity;BME280_pressure;Samples;Min_cycle;Max_cycle;Signal;HPM_P1;HPM_P2
2022/04/27 00:00:56;;;;;;;9.60;6.20;;;16.00;71.70;;;;;;1857829;76;21050;-64
2022/04/27 00:03:25;;;;;;;9.65;5.75;;;16.10;71.70;;;;;;1857718;77;21113;-64
2022/04/27 00:05:54;;;;;;;10.38;5.85;;;16.10;71.80;;;;;;1857676;76;21018;-64
2022/04/27 00:08:23;;;;;;;13.43;6.08;;;16.10;71.90;;;;;;1857703;76;21043;-64
2022/04/27 00:10:53;;;;;;;9.63;6.20;;;16.10;71.90;;;;;;1857805;77;21054;-64
2022/04/27 00:13:22;;;;;;;12.58;6.47;;;16.10;72.30;;;;;;1857801;76;21023;-64
2022/04/27 00:15:51;;;;;;;12.63;6.15;;;16.10;72.30;;;;;;1857711;77;21148;-64
2022/04/27 00:18:21;;;;;;;9.65;5.25;;;16.10;72.20;;;;;;1857711;77;21082;-64
2022/04/27 00:20:50;;;;;;;8.05;4.85;;;16.10;72.20;;;;;;1857696;76;21050;-64
2022/04/27 00:23:21;;;;;;;10.85;5.33;;;16.00;72.30;;;;;;1857746;76;21108;-64
2022/04/27 00:25:50;;;;;;;7.40;5.17;;;16.00;72.40;;;;;;1857840;77;21066;-64
2022/04/27 00:28:20;;;;;;;7.60;4.60;;;16.00;72.50;;;;;;1857715;76;21134;-64
2022/04/27 00:30:49;;;;;;;9.55;5.45;;;16.00;72.20;;;;;;1857720;76;21152;-64
2022/04/27 00:33:18;;;;;;;7.47;5.20;;;15.90;72.10;;;;;;1857702;76;21112;-65
2022/04/27 00:35:48;;;;;;;8.60;5.17;;;15.90;72.30;;;;;;1857747;76;21046;-64
2022/04/27 00:38:17;;;;;;;11.12;4.53;;;16.00;72.40;;;;;;1857872;76;21196;-64
2022/04/27 00:40:46;;;;;;;7.60;4.65;;;16.00;71.90;;;;;;1857759;76;21042;-64
2022/04/27 00:43:17;;;;;;;5.40;4.70;;;16.00;71.90;;;;;;1857690;76;21046;-64
2022/04/27 00:45:46;;;;;;;17.02;5.58;;;16.10;72.20;;;;;;1857800;77;21114;-64
2022/04/27 00:48:16;;;;;;;7.87;4.65;;;16.10;72.20;;;;;;1857683;76;21243;-64
2022/04/27 00:50:45;;;;;;;8.90;5.05;;;16.10;72.20;;;;;;1857843;76;21124;-64
2022/04/27 00:53:14;;;;;;;7.12;4.33;;;16.10;72.10;;;;;;1857730;77;21108;-64
2022/04/27 00:55:44;;;;;;;6.35;4.95;;;16.10;71.90;;;;;;1857861;77;21469;-64
2022/04/27 00:58:15;;;;;;;8.50;4.58;;;16.10;71.90;;;;;;1857701;77;21120;-64
2022/04/27 01:00:44;;;;;;;7.30;4.37;;;16.10;71.80;;;;;;1857735;76;21039;-64
2022/04/27 01:03:14;;;;;;;7.58;5.28;;;16.00;71.20;;;;;;1857706;76;21061;-64
2022/04/27 01:05:43;;;;;;;6.03;4.50;;;15.90;71.30;;;;;;1857722;76;21108;-64
2022/04/27 01:08:13;;;;;;;6.60;4.75;;;15.90;71.80;;;;;;1857832;76;21120;-64
2022/04/27 01:10:47;;;;;;;12.05;4.65;;;15.70;71.90;;;;;;1857797;76;21112;-64
2022/04/27 01:13:17;;;;;;;8.68;5.00;;;15.70;71.90;;;;;;1857967;76;21125;-64
2022/04/27 01:15:48;;;;;;;6.87;4.62;;;15.60;72.10;;;;;;1857638;75;21160;-64
2022/04/27 01:18:17;;;;;;;9.00;5.37;;;15.50;72.20;;;;;;1857860;76;21109;-64
2022/04/27 01:20:47;;;;;;;7.95;5.40;;;15.40;72.50;;;;;;1857832;76;21059;-65
2022/04/27 01:23:18;;;;;;;7.60;5.17;;;15.40;72.70;;;;;;1857447;77;21172;-64
2022/04/27 01:26:01;;;;;;;7.03;5.45;;;15.40;73.10;;;;;;1857636;77;21105;-64
2022/04/27 01:28:30;;;;;;;6.40;5.00;;;15.40;73.30;;;;;;1857590;76;21094;-64
2022/04/27 01:31:01;;;;;;;6.12;4.90;;;15.40;73.40;;;;;;1857795;76;21203;-64
2022/04/27 01:33:31;;;;;;;7.12;5.05;;;15.40;73.00;;;;;;1857799;77;21089;-64
2022/04/27 01:36:00;;;;;;;7.78;5.25;;;15.40;73.30;;;;;;1857753;76;21085;-64
2022/04/27 01:38:41;;;;;;;6.80;5.08;;;15.30;72.50;;;;;;1857814;76;21050;-64
2022/04/27 01:41:11;;;;;;;7.22;4.92;;;15.10;72.70;;;;;;1857738;77;21046;-64
2022/04/27 01:43:41;;;;;;;7.28;5.28;;;15.10;73.10;;;;;;1857701;76;21147;-64
2022/04/27 01:46:11;;;;;;;7.35;5.25;;;15.10;73.40;;;;;;1857714;76;21090;-65
2022/04/27 01:48:40;;;;;;;9.05;4.78;;;15.10;73.70;;;;;;1857656;76;21058;-65
2022/04/27 01:51:09;;;;;;;5.97;5.10;;;15.10;73.90;;;;;;1857681;77;21074;-64
2022/04/27 01:56:27;;;;;;;6.67;4.97;;;15.20;74.40;;;;;;1857791;77;21066;-65
2022/04/27 01:58:56;;;;;;;8.60;5.42;;;15.20;74.30;;;;;;1857681;77;21051;-65
2022/04/27 02:01:26;;;;;;;9.63;5.25;;;15.20;74.30;;;;;;1857732;77;21026;-64
2022/04/27 02:03:57;;;;;;;10.98;6.03;;;15.20;74.30;;;;;;1856747;77;21055;-64
2022/04/27 02:06:26;;;;;;;7.97;4.90;;;15.20;74.40;;;;;;1857677;76;21089;-65
2022/04/27 02:08:55;;;;;;;7.70;5.50;;;15.20;74.60;;;;;;1857777;76;21046;-64
2022/04/27 02:11:26;;;;;;;7.65;5.30;;;15.20;74.50;;;;;;1857253;76;21109;-64
2022/04/27 02:13:57;;;;;;;9.13;5.28;;;15.10;74.10;;;;;;1856818;77;21082;-65
2022/04/27 02:16:28;;;;;;;7.67;4.97;;;15.00;74.40;;;;;;1857805;76;21097;-65
2022/04/27 02:18:58;;;;;;;9.70;5.72;;;14.90;74.40;;;;;;1857675;76;21046;-65
2022/04/27 02:21:28;;;;;;;9.73;5.62;;;14.80;74.50;;;;;;1857744;76;21085;-65
2022/04/27 02:23:57;;;;;;;9.70;5.75;;;14.70;74.40;;;;;;1857667;76;21500;-65
2022/04/27 02:26:26;;;;;;;9.23;5.85;;;14.60;74.50;;;;;;1857612;77;21112;-65
2022/04/27 02:28:57;;;;;;;10.08;5.83;;;14.50;75.00;;;;;;1848823;77;21068;-65
2022/04/27 02:31:27;;;;;;;9.38;6.10;;;14.50;75.40;;;;;;1825916;78;21066;-65
2022/04/27 02:33:56;;;;;;;8.28;6.47;;;14.50;75.60;;;;;;1825949;78;21117;-65
2022/04/27 02:36:26;;;;;;;9.93;5.72;;;14.60;75.90;;;;;;1825954;77;21023;-65
2022/04/27 02:38:56;;;;;;;10.45;5.90;;;14.60;76.00;;;;;;1825888;78;21031;-65
2022/04/27 02:41:25;;;;;;;8.75;5.72;;;14.70;76.10;;;;;;1825959;78;21121;-65
2022/04/27 02:46:44;;;;;;;8.78;5.67;;;14.70;76.00;;;;;;1881588;75;21114;-65
2022/04/27 02:52:02;;;;;;;10.63;6.30;;;14.80;76.20;;;;;;1881638;75;21106;-65
2022/04/27 02:54:36;;;;;;;15.63;7.63;;;14.80;76.10;;;;;;1878567;75;21032;-65
2022/04/27 02:57:06;;;;;;;9.48;6.62;;;14.80;75.90;;;;;;1881617;76;21032;-65
2022/04/27 02:59:36;;;;;;;14.78;10.08;;;14.80;75.90;;;;;;1881713;76;21025;-65
2022/04/27 03:02:05;;;;;;;19.40;9.13;;;14.80;76.20;;;;;;1881604;75;21114;-65
2022/04/27 03:04:35;;;;;;;12.45;7.80;;;14.90;76.80;;;;;;1881656;75;21095;-65
2022/04/27 03:07:04;;;;;;;12.10;7.62;;;15.00;76.40;;;;;;1881713;75;21009;-64
2022/04/27 03:09:36;;;;;;;10.93;7.10;;;15.00;76.30;;;;;;1881104;75;21117;-65
2022/04/27 03:12:06;;;;;;;12.37;7.05;;;15.10;75.90;;;;;;1881631;76;21084;-64
2022/04/27 03:14:40;;;;;;;11.68;7.45;;;15.00;75.20;;;;;;1880666;75;21201;-65
2022/04/27 03:17:09;;;;;;;11.18;6.67;;;14.90;75.40;;;;;;1881603;75;21028;-65
2022/04/27 03:19:38;;;;;;;10.78;6.80;;;14.90;75.70;;;;;;1881652;75;21090;-65
2022/04/27 03:22:09;;;;;;;13.62;7.37;;;14.90;75.90;;;;;;1881589;76;21040;-65
2022/04/27 03:24:39;;;;;;;14.45;7.53;;;15.00;75.90;;;;;;1881657;76;21024;-65
2022/04/27 03:27:10;;;;;;;21.97;8.33;;;15.10;75.90;;;;;;1880348;75;21072;-65
2022/04/27 03:29:41;;;;;;;37.15;9.50;;;15.10;75.70;;;;;;1881762;76;21090;-64
2022/04/27 03:32:11;;;;;;;12.50;7.80;;;15.20;75.50;;;;;;1881748;76;21040;-65
2022/04/27 03:34:42;;;;;;;11.73;7.12;;;15.30;75.40;;;;;;1881466;75;21052;-65
2022/04/27 03:37:11;;;;;;;15.75;8.05;;;15.40;75.10;;;;;;1881667;75;21032;-65
2022/04/27 03:39:40;;;;;;;12.35;8.50;;;15.40;74.80;;;;;;1881889;76;21079;-65
2022/04/27 03:42:11;;;;;;;13.32;8.80;;;15.40;74.70;;;;;;1881659;76;21075;-64
2022/04/27 03:44:41;;;;;;;16.70;8.80;;;15.30;75.00;;;;;;1881709;75;21075;-65
2022/04/27 03:47:10;;;;;;;19.60;8.95;;;15.30;75.20;;;;;;1872408;75;21177;-65
2022/04/27 03:49:40;;;;;;;13.28;8.45;;;15.30;75.30;;;;;;1872280;76;21033;-65
2022/04/27 03:52:09;;;;;;;15.85;8.33;;;15.40;75.20;;;;;;1872406;76;21103;-65
2022/04/27 03:54:39;;;;;;;17.02;9.08;;;15.40;75.30;;;;;;1872263;76;21021;-65
2022/04/27 03:57:08;;;;;;;17.23;9.50;;;15.50;75.30;;;;;;1872257;75;21029;-64
2022/04/27 03:59:38;;;;;;;19.12;9.30;;;15.60;75.30;;;;;;1872227;77;21488;-65
2022/04/27 04:02:07;;;;;;;23.98;9.95;;;15.70;75.60;;;;;;1872378;76;21092;-65
2022/04/27 04:04:36;;;;;;;24.98;10.20;;;15.90;74.70;;;;;;1872369;75;21037;-64
2022/04/27 04:07:06;;;;;;;34.53;11.15;;;16.10;74.40;;;;;;1872181;76;21025;-65
2022/04/27 04:09:37;;;;;;;20.80;10.25;;;16.20;73.90;;;;;;1871031;74;21068;-65
2022/04/27 04:12:07;;;;;;;31.02;10.38;;;16.20;73.50;;;;;;1872197;77;21467;-65
2022/04/27 04:14:54;;;;;;;14.80;7.08;;;16.20;73.40;;;;;;1872215;75;21106;-65
2022/04/27 04:17:28;;;;;;;20.02;7.22;;;16.10;73.70;;;;;;1869821;75;21081;-65
2022/04/27 04:19:59;;;;;;;13.95;6.47;;;16.00;74.10;;;;;;1869885;75;21073;-65
2022/04/27 04:22:36;;;;;;;17.02;7.42;;;15.90;74.30;;;;;;1858805;77;21036;-65
2022/04/27 04:30:43;;;;;;;14.60;6.12;;;16.10;74.60;;;;;;1872196;75;21061;-65
2022/04/27 04:33:20;;;;;;;12.33;5.92;;;16.20;74.50;;;;;;1833631;77;21080;-65
2022/04/27 04:35:52;;;;;;;14.43;6.12;;;16.30;74.30;;;;;;1871714;75;21141;-64
2022/04/27 04:38:21;;;;;;;14.05;5.53;;;16.40;74.10;;;;;;1872192;76;21088;-65
2022/04/27 04:40:52;;;;;;;32.80;7.40;;;16.60;74.10;;;;;;1871960;75;21065;-65
2022/04/27 04:43:23;;;;;;;21.45;6.65;;;16.70;74.10;;;;;;1872278;76;21029;-65
2022/04/27 04:45:52;;;;;;;17.02;5.85;;;16.80;74.20;;;;;;1872063;75;21135;-65
2022/04/27 04:48:29;;;;;;;13.45;5.85;;;16.90;74.30;;;;;;1869561;76;21077;-65
2022/04/27 04:51:16;;;;;;;15.18;6.00;;;17.00;74.40;;;;;;1872155;75;21507;-65
2022/04/27 04:53:47;;;;;;;18.05;5.10;;;17.10;74.20;;;;;;1871523;75;21092;-65
2022/04/27 04:56:18;;;;;;;7.60;4.30;;;17.20;73.80;;;;;;1870725;75;21120;-65
2022/04/27 04:59:04;;;;;;;9.50;4.20;;;17.40;73.30;;;;;;1767478;81;21151;-65
2022/04/27 05:01:51;;;;;;;11.60;4.28;;;17.50;72.80;;;;;;1836501;77;21384;-65
2022/04/27 05:04:27;;;;;;;7.50;4.03;;;17.60;71.80;;;;;;1853943;76;21137;-65
2022/04/27 05:07:01;;;;;;;8.83;3.98;;;17.80;71.30;;;;;;1854706;76;21089;-65
2022/04/27 05:09:51;;;;;;;9.18;3.67;;;17.90;70.80;;;;;;1853295;76;21077;-65
2022/04/27 05:12:24;;;;;;;5.33;3.02;;;18.00;70.10;;;;;;1820820;77;21136;-64
2022/04/27 05:15:01;;;;;;;6.30;3.40;;;18.10;70.10;;;;;;1854259;76;21084;-65
2022/04/27 05:17:42;;;;;;;15.05;3.60;;;18.10;69.80;;;;;;1853778;76;21104;-65
2022/04/27 05:20:15;;;;;;;8.88;3.92;;;18.20;69.80;;;;;;1820711;77;21492;-65
2022/04/27 05:22:52;;;;;;;9.25;3.98;;;18.30;70.10;;;;;;1853865;75;21061;-65
2022/04/27 05:25:33;;;;;;;9.38;4.83;;;18.30;69.30;;;;;;1853381;77;21135;-65
2022/04/27 05:28:09;;;;;;;8.40;6.25;;;18.40;69.50;;;;;;1854314;77;21069;-65
2022/04/27 05:33:32;;;;;;;10.32;4.50;;;18.50;69.20;;;;;;1770461;80;21081;-65
2022/04/27 05:36:03;;;;;;;9.43;5.85;;;18.60;69.10;;;;;;1783843;80;21133;-65
2022/04/27 05:38:50;;;;;;;13.48;4.15;;;18.70;69.00;;;;;;1783921;80;21103;-65
2022/04/27 05:41:24;;;;;;;8.43;3.85;;;18.80;68.70;;;;;;1783801;80;21192;-65
2022/04/27 05:43:55;;;;;;;22.22;4.30;;;18.90;69.10;;;;;;1783928;80;21113;-65
2022/04/27 05:46:37;;;;;;;17.27;3.80;;;19.00;68.20;;;;;;1868975;75;21089;-65
2022/04/27 05:49:11;;;;;;;5.65;3.30;;;19.10;68.20;;;;;;1880700;75;21094;-65
2022/04/27 05:51:59;;;;;;;8.95;3.35;;;19.20;67.80;;;;;;1882837;76;21120;-65
2022/04/27 05:54:29;;;;;;;10.53;3.12;;;19.20;67.50;;;;;;1874514;76;21092;-66
2022/04/27 05:57:03;;;;;;;3.75;2.80;;;19.40;67.20;;;;;;1879383;75;21089;-64
2022/04/27 05:59:50;;;;;;;5.28;3.05;;;19.50;67.10;;;;;;1883011;76;21126;-64
2022/04/27 06:02:38;;;;;;;6.25;3.42;;;19.60;66.80;;;;;;1882919;76;21100;-64
2022/04/27 06:05:10;;;;;;;11.30;2.77;;;19.60;66.60;;;;;;1882962;76;21038;-64
2022/04/27 06:07:40;;;;;;;4.95;2.70;;;19.70;65.80;;;;;;1882883;76;21038;-64
2022/04/27 06:10:11;;;;;;;10.05;3.25;;;19.80;65.30;;;;;;1881840;75;21049;-65
2022/04/27 06:12:49;;;;;;;9.20;4.03;;;19.80;64.90;;;;;;1882609;75;21078;-64
2022/04/27 06:15:36;;;;;;;6.25;3.80;;;19.90;64.50;;;;;;1882910;76;21053;-64
2022/04/27 06:18:07;;;;;;;11.35;4.10;;;20.00;64.50;;;;;;1882254;75;21086;-64
2022/04/27 06:20:37;;;;;;;15.32;6.55;;;20.10;64.10;;;;;;1882976;76;21018;-64
2022/04/27 06:23:07;;;;;;;23.95;10.60;;;20.20;63.90;;;;;;1882939;76;21108;-64
2022/04/27 06:25:39;;;;;;;26.48;8.98;;;20.30;63.80;;;;;;1882941;76;21038;-64
2022/04/27 06:28:12;;;;;;;12.15;4.85;;;20.40;63.80;;;;;;1882714;75;21468;-64
2022/04/27 06:30:42;;;;;;;14.07;5.00;;;20.40;63.60;;;;;;1882869;76;21057;-64
2022/04/27 06:33:11;;;;;;;20.85;5.10;;;20.60;63.50;;;;;;1882805;76;21099;-64
2022/04/27 06:35:41;;;;;;;10.53;4.72;;;20.60;63.30;;;;;;1882817;76;21057;-64
2022/04/27 06:38:12;;;;;;;10.55;3.12;;;20.70;63.20;;;;;;1882399;75;21151;-64
2022/04/27 06:40:42;;;;;;;6.70;3.77;;;20.80;62.50;;;;;;1882898;76;21018;-65
2022/04/27 06:43:12;;;;;;;3.98;2.20;;;20.90;61.60;;;;;;1882876;76;21034;-65
2022/04/27 06:45:49;;;;;;;6.67;3.10;;;20.90;61.10;;;;;;1882692;75;21180;-65
2022/04/27 06:48:36;;;;;;;9.08;4.53;;;21.00;61.20;;;;;;1882792;76;21516;-65
2022/04/27 06:51:18;;;;;;;11.05;3.42;;;21.10;59.80;;;;;;1844170;77;21127;-65
2022/04/27 06:53:58;;;;;;;8.85;3.62;;;21.10;59.20;;;;;;1844342;78;21065;-65
2022/04/27 06:56:45;;;;;;;5.30;2.55;;;21.20;58.80;;;;;;1882823;76;21063;-65
2022/04/27 06:59:33;;;;;;;5.55;2.12;;;21.20;59.00;;;;;;1882823;76;21070;-65
2022/04/27 07:02:05;;;;;;;8.60;2.42;;;21.20;58.90;;;;;;1882538;75;21037;-65
2022/04/27 07:04:37;;;;;;;7.20;3.00;;;21.30;59.20;;;;;;1882753;76;21111;-65
2022/04/27 07:07:08;;;;;;;19.02;4.33;;;21.40;59.20;;;;;;1882918;75;21131;-65
2022/04/27 07:09:37;;;;;;;12.10;3.37;;;21.40;59.40;;;;;;1883074;76;21127;-65
2022/04/27 07:12:07;;;;;;;6.58;3.08;;;21.50;59.50;;;;;;1882881;76;21049;-65
2022/04/27 07:14:37;;;;;;;7.12;2.72;;;21.60;59.50;;;;;;1882878;76;21034;-65
2022/04/27 07:17:06;;;;;;;6.87;2.80;;;21.70;59.30;;;;;;1882921;76;21034;-65
2022/04/27 07:19:36;;;;;;;5.37;2.67;;;21.80;58.90;;;;;;1882946;76;21104;-65
2022/04/27 07:22:05;;;;;;;14.33;3.50;;;21.90;58.60;;;;;;1882909;76;21038;-65
2022/04/27 07:24:36;;;;;;;7.70;2.67;;;21.90;58.80;;;;;;1882965;76;21030;-65
2022/04/27 07:27:06;;;;;;;7.35;3.25;;;22.00;58.40;;;;;;1882919;76;21041;-65
2022/04/27 07:29:35;;;;;;;6.10;2.45;;;22.00;58.60;;;;;;1882969;76;21104;-65
2022/04/27 07:32:05;;;;;;;3.08;2.17;;;22.00;58.40;;;;;;1883034;76;21037;-65
2022/04/27 07:34:34;;;;;;;2.98;1.82;;;22.10;57.90;;;;;;1883011;76;21073;-65
2022/04/27 07:37:05;;;;;;;4.03;2.33;;;22.10;57.30;;;;;;1882932;76;21076;-64
2022/04/27 07:39:35;;;;;;;5.08;2.40;;;22.20;57.10;;;;;;1883047;76;21050;-65
2022/04/27 07:42:05;;;;;;;5.53;2.77;;;22.30;57.00;;;;;;1883059;76;21038;-65
2022/04/27 07:44:34;;;;;;;4.33;2.00;;;22.30;57.00;;;;;;1878838;76;21036;-64
2022/04/27 07:47:04;;;;;;;24.67;3.45;;;22.30;56.40;;;;;;1878442;75;21034;-64
2022/04/27 07:49:34;;;;;;;3.75;2.15;;;22.30;57.00;;;;;;1878162;76;21198;-66
2022/04/27 07:52:03;;;;;;;5.30;1.80;;;22.40;56.90;;;;;;1876642;76;21100;-73
2022/04/27 07:54:32;;;;;;;8.70;2.42;;;22.40;56.50;;;;;;1877191;76;21127;-63
2022/04/27 07:57:01;;;;;;;6.25;2.12;;;22.50;56.30;;;;;;1877631;76;21040;-63
2022/04/27 07:59:31;;;;;;;6.20;1.82;;;22.50;54.20;;;;;;1876755;76;21071;-66
2022/04/27 08:02:00;;;;;;;3.30;2.40;;;22.50;52.80;;;;;;1876573;76;21181;-62
2022/04/27 08:04:53;;;;;;;2.42;2.17;;;22.50;53.80;;;;;;1876954;76;21103;-64
2022/04/27 08:07:23;;;;;;;4.45;2.65;;;22.50;54.10;;;;;;1843714;77;21141;-73
2022/04/27 08:09:52;;;;;;;8.00;2.12;;;22.60;53.90;;;;;;1840936;77;21002;-66
2022/04/27 08:12:22;;;;;;;5.70;1.98;;;22.60;53.70;;;;;;1844738;77;21077;-71
2022/04/27 08:14:53;;;;;;;17.30;3.77;;;22.60;52.90;;;;;;1846475;77;21124;-65
2022/04/27 08:17:22;;;;;;;9.95;3.02;;;22.60;53.20;;;;;;1848801;77;21202;-66
2022/04/27 08:21:13;;;;;;;16.90;3.17;;;22.60;53.60;;;;;;1847220;77;21043;-67
2022/04/27 08:22:22;;;;;;;3.15;2.10;;;22.70;53.10;;;;;;1849732;77;21492;-73
2022/04/27 08:24:51;;;;;;;6.97;2.40;;;22.70;52.30;;;;;;1850780;77;21096;-70
2022/04/27 08:27:20;;;;;;;7.25;2.10;;;22.70;53.00;;;;;;1850728;77;21061;-64
2022/04/27 08:29:50;;;;;;;3.85;1.80;;;22.80;51.80;;;;;;1850288;77;21156;-64
2022/04/27 08:32:19;;;;;;;4.10;1.55;;;22.90;51.20;;;;;;1849104;77;21042;-69
2022/04/27 08:34:50;;;;;;;2.87;1.70;;;23.00;51.20;;;;;;1848945;77;21018;-72
2022/04/27 08:37:19;;;;;;;10.98;2.52;;;23.10;51.00;;;;;;1849575;77;21085;-74
2022/04/27 08:39:49;;;;;;;8.50;3.12;;;23.20;50.70;;;;;;1849961;77;21574;-70
2022/04/27 08:42:18;;;;;;;4.05;2.35;;;23.30;50.50;;;;;;1849338;77;21034;-77
2022/04/27 08:44:47;;;;;;;5.37;3.33;;;23.30;49.60;;;;;;1846289;77;21066;-74
2022/04/27 08:47:29;;;;;;;25.52;3.90;;;23.30;50.20;;;;;;1848704;77;21200;-69
2022/04/27 08:50:15;;;;;;;6.17;3.40;;;23.20;50.10;;;;;;1843312;77;21053;-70
2022/04/27 08:52:52;;;;;;;7.00;3.47;;;23.30;49.80;;;;;;1849013;77;21079;-69
2022/04/27 08:55:30;;;;;;;20.27;4.08;;;23.30;50.60;;;;;;1848453;77;22155;-74
2022/04/27 08:58:10;;;;;;;8.03;4.40;;;23.30;50.20;;;;;;1846415;77;21098;-66
2022/04/27 09:00:46;;;;;;;6.33;2.75;;;23.30;50.40;;;;;;1848808;77;21137;-74
2022/04/27 09:03:32;;;;;;;3.58;2.65;;;23.40;50.80;;;;;;1849072;77;21020;-76
2022/04/27 09:06:03;;;;;;;12.90;4.25;;;23.40;50.60;;;;;;1847361;77;21589;-66
2022/04/27 09:08:43;;;;;;;3.80;2.80;;;23.40;50.80;;;;;;1843804;78;21122;-75
2022/04/27 09:11:27;;;;;;;5.10;2.60;;;23.50;51.10;;;;;;1843706;78;21051;-73
2022/04/27 09:13:58;;;;;;;11.38;3.70;;;23.50;51.00;;;;;;1847083;77;21083;-71
2022/04/27 09:20:46;;;;;;;5.15;2.60;;;23.50;50.60;;;;;;1843305;77;21482;-77
2022/04/27 09:22:00;;;;;;;7.58;3.55;;;23.60;49.40;;;;;;1842774;77;21115;-74
2022/04/27 09:24:32;;;;;;;7.45;2.95;;;23.60;48.80;;;;;;1846479;77;21047;-74
2022/04/27 09:27:03;;;;;;;5.03;2.72;;;23.60;48.00;;;;;;1842108;76;21565;-70
2022/04/27 09:29:32;;;;;;;8.40;3.27;;;23.70;48.10;;;;;;1849047;76;21855;-70
2022/04/27 09:32:03;;;;;;;9.65;2.87;;;23.70;47.40;;;;;;1850467;77;21100;-68
2022/04/27 09:34:36;;;;;;;6.12;2.30;;;23.80;47.00;;;;;;1850620;77;21540;-69
2022/04/27 09:37:08;;;;;;;4.50;2.55;;;23.90;46.40;;;;;;1847699;76;21050;-66
2022/04/27 09:39:37;;;;;;;6.85;2.37;;;23.80;45.60;;;;;;1844587;77;21535;-66
2022/04/27 09:42:14;;;;;;;6.37;2.47;;;23.80;45.80;;;;;;1850629;77;21147;-70
2022/04/27 09:44:40;;;;;;;5.35;2.40;;;23.90;45.90;;;;;;1849590;77;21030;-71
2022/04/27 09:47:10;;;;;;;6.75;2.90;;;23.90;46.60;;;;;;1850546;77;21140;-71
2022/04/27 09:49:41;;;;;;;6.62;2.58;;;23.90;47.10;;;;;;1850465;77;21049;-71
2022/04/27 09:52:11;;;;;;;4.90;2.12;;;23.90;46.30;;;;;;1850553;77;22202;-64
2022/04/27 09:54:44;;;;;;;11.65;2.92;;;23.90;46.90;;;;;;1850610;77;21166;-66
2022/04/27 09:57:16;;;;;;;10.38;3.17;;;23.90;48.30;;;;;;1850595;77;21065;-67
2022/04/27 14:31:39;;;;;;;8.68;1.87;;;23.30;49.40;;;;;;1924482;74;28491;-58
2022/04/27 14:34:08;;;;;;;4.10;2.98;;;23.70;47.20;;;;;;1885037;75;21058;-59
2022/04/27 14:36:38;;;;;;;3.62;2.12;;;23.60;47.70;;;;;;1885047;76;21015;-59
2022/04/27 14:39:08;;;;;;;3.35;1.77;;;23.60;47.70;;;;;;1885008;76;21038;-59
2022/04/27 14:41:37;;;;;;;10.08;2.08;;;23.60;47.70;;;;;;1885013;76;21027;-59
2022/04/27 14:44:07;;;;;;;4.30;1.92;;;23.60;47.90;;;;;;1885124;75;21104;-58
2022/04/27 14:49:26;;;;;;;5.97;1.60;;;23.50;48.00;;;;;;1814172;79;21107;-58
2022/04/27 14:51:55;;;;;;;2.92;1.22;;;23.40;48.00;;;;;;1814306;79;21045;-58
2022/04/27 14:54:25;;;;;;;2.55;1.37;;;23.40;47.90;;;;;;1814341;79;21096;-58
2022/04/27 14:56:54;;;;;;;4.10;1.20;;;23.30;47.90;;;;;;1814244;79;21131;-58
2022/04/27 14:59:24;;;;;;;4.35;1.65;;;23.20;47.90;;;;;;1814239;79;21037;-58
2022/04/27 15:01:53;;;;;;;9.23;3.05;;;23.20;48.10;;;;;;1814342;79;21065;-58
2022/04/27 15:04:23;;;;;;;7.03;1.72;;;23.10;47.80;;;;;;1814211;79;21038;-58
2022/04/27 15:06:52;;;;;;;2.15;1.32;;;23.00;47.70;;;;;;1814226;79;21069;-58
2022/04/27 15:09:22;;;;;;;6.95;2.08;;;23.00;48.00;;;;;;1814173;79;21041;-59
2022/04/27 15:11:51;;;;;;;2.72;1.37;;;22.90;48.30;;;;;;1814204;79;21041;-58
2022/04/27 15:14:20;;;;;;;7.55;1.80;;;22.80;48.30;;;;;;1814177;79;21049;-58
2022/04/27 15:16:50;;;;;;;3.80;1.60;;;22.70;48.60;;;;;;1814257;79;21085;-58
2022/04/27 15:19:19;;;;;;;4.97;1.60;;;22.70;48.70;;;;;;1814358;79;21049;-59
2022/04/27 15:24:36;;;;;;;17.32;3.12;;;22.60;49.40;;;;;;1814281;79;21037;-58
2022/04/27 15:27:08;;;;;;;5.55;1.65;;;22.50;49.50;;;;;;1814264;79;21112;-58
2022/04/27 15:29:37;;;;;;;2.87;1.40;;;22.50;49.40;;;;;;1814358;79;21065;-58
2022/04/27 15:32:08;;;;;;;3.10;1.95;;;22.40;49.70;;;;;;1813787;79;21065;-58
2022/04/27 15:34:38;;;;;;;3.83;1.65;;;22.30;49.90;;;;;;1813669;79;21026;-58
2022/04/27 15:37:11;;;;;;;1.75;1.47;;;22.30;50.20;;;;;;1813773;79;21123;-58
2022/04/27 15:39:39;;;;;;;5.70;1.40;;;22.20;50.30;;;;;;1813814;79;21042;-58
2022/04/27 15:42:08;;;;;;;3.40;1.67;;;22.20;50.60;;;;;;1813639;79;21026;-58
2022/04/27 15:44:39;;;;;;;8.43;2.02;;;22.10;50.80;;;;;;1813633;79;21041;-58
2022/04/27 15:47:09;;;;;;;11.50;2.55;;;22.10;51.10;;;;;;1813756;79;21105;-58
2022/04/27 15:49:38;;;;;;;10.32;2.37;;;22.00;52.00;;;;;;1822843;79;21121;-58
2022/04/27 15:52:07;;;;;;;2.47;1.42;;;22.00;51.60;;;;;;1825206;79;21027;-58
2022/04/27 15:54:37;;;;;;;9.43;1.98;;;21.90;51.80;;;;;;1825090;79;21067;-58
2022/04/27 15:57:06;;;;;;;4.25;1.55;;;21.80;51.90;;;;;;1825110;79;21073;-58
2022/04/27 15:59:37;;;;;;;6.83;1.87;;;21.70;52.10;;;;;;1825133;79;21046;-58
2022/04/27 16:02:06;;;;;;;12.60;1.87;;;21.60;52.40;;;;;;1825246;79;21069;-58
2022/04/27 16:04:35;;;;;;;2.65;1.65;;;21.50;52.60;;;;;;1825224;79;21047;-58
2022/04/27 16:07:05;;;;;;;6.40;2.05;;;21.40;53.20;;;;;;1825229;79;21046;-58
2022/04/27 16:09:36;;;;;;;8.60;1.70;;;21.30;53.30;;;;;;1825282;79;21046;-58
2022/04/27 16:12:07;;;;;;;6.50;2.00;;;21.30;53.40;;;;;;1825337;79;21082;-58
2022/04/27 16:14:36;;;;;;;11.20;2.20;;;21.20;53.70;;;;;;1825233;79;21114;-58
2022/04/27 16:17:06;;;;;;;9.88;2.62;;;21.10;53.80;;;;;;1825236;79;21058;-58
2022/04/27 16:19:35;;;;;;;5.60;1.92;;;21.10;54.00;;;;;;1825345;79;21058;-58
2022/04/27 16:24:52;;;;;;;21.37;4.53;;;20.90;54.40;;;;;;1825226;79;21079;-58
2022/04/27 16:27:22;;;;;;;6.60;2.60;;;20.80;54.50;;;;;;1825303;79;21086;-58
2022/04/27 16:29:52;;;;;;;7.35;2.67;;;20.80;54.60;;;;;;1825189;79;21196;-58
2022/04/27 16:32:21;;;;;;;6.40;2.33;;;20.70;54.80;;;;;;1825098;79;21086;-58
2022/04/27 16:34:50;;;;;;;3.80;2.65;;;20.60;55.00;;;;;;1825103;79;21165;-58
2022/04/27 16:37:20;;;;;;;6.45;2.37;;;20.60;55.30;;;;;;1825240;79;21087;-58
2022/04/27 16:39:49;;;;;;;4.78;2.42;;;20.50;55.50;;;;;;1825206;79;21050;-58
2022/04/27 16:42:19;;;;;;;8.65;3.58;;;20.40;55.70;;;;;;1825056;79;21059;-58
2022/04/27 16:44:48;;;;;;;10.95;5.03;;;20.40;56.10;;;;;;1825199;79;21520;-58
2022/04/27 16:47:17;;;;;;;24.43;10.05;;;20.30;56.50;;;;;;1825081;79;21546;-58
2022/04/27 16:49:47;;;;;;;17.50;6.00;;;20.30;57.00;;;;;;1815203;79;21075;-58
2022/04/27 16:52:16;;;;;;;10.70;4.45;;;20.20;57.50;;;;;;1807675;79;21121;-57
2022/04/27 16:54:47;;;;;;;13.62;4.65;;;20.10;58.10;;;;;;1807766;79;21055;-58
2022/04/27 16:57:18;;;;;;;10.10;3.33;;;20.00;58.50;;;;;;1807740;79;21071;-58
2022/04/27 16:59:47;;;;;;;10.55;3.33;;;19.90;59.10;;;;;;1807761;79;21051;-58
2022/04/27 17:02:17;;;;;;;5.78;3.15;;;19.90;59.50;;;;;;1807735;79;21122;-58
2022/04/27 17:04:46;;;;;;;7.40;3.77;;;19.80;60.10;;;;;;1807780;79;21129;-58
2022/04/27 17:07:15;;;;;;;9.23;3.80;;;19.60;60.60;;;;;;1807655;79;21129;-58
2022/04/27 17:09:44;;;;;;;9.95;3.08;;;19.50;60.90;;;;;;1807787;79;21150;-58
2022/04/27 17:12:14;;;;;;;7.85;3.00;;;19.40;61.00;;;;;;1807701;79;21055;-58
2022/04/27 17:14:43;;;;;;;6.65;3.40;;;19.40;61.30;;;;;;1807747;79;21031;-58
2022/04/27 17:17:12;;;;;;;4.95;3.27;;;19.30;61.70;;;;;;1807663;79;21090;-58
2022/04/27 17:19:42;;;;;;;7.10;3.42;;;19.20;61.80;;;;;;1807662;79;21055;-58
2022/04/27 17:22:11;;;;;;;6.92;3.70;;;19.10;62.00;;;;;;1807661;79;21102;-58
2022/04/27 17:24:42;;;;;;;11.65;3.50;;;19.00;62.30;;;;;;1807639;79;21360;-58
2022/04/27 17:30:04;;;;;;;5.10;3.37;;;18.90;62.70;;;;;;1807674;79;21071;-58
2022/04/27 17:32:34;;;;;;;4.58;3.20;;;18.80;62.90;;;;;;1807793;79;21055;-58
2022/04/27 17:35:03;;;;;;;6.83;3.47;;;18.70;63.10;;;;;;1807638;79;21035;-58
2022/04/27 17:37:33;;;;;;;4.42;3.25;;;18.70;63.30;;;;;;1807691;79;21055;-58
2022/04/27 17:40:02;;;;;;;8.23;4.55;;;18.60;63.20;;;;;;1807724;79;21055;-58
2022/04/27 17:42:34;;;;;;;5.28;3.85;;;18.60;63.50;;;;;;1807675;79;21055;-58
2022/04/27 17:45:10;;;;;;;6.53;4.20;;;18.60;63.60;;;;;;1807681;79;21101;-58
2022/04/27 17:47:40;;;;;;;8.40;4.47;;;18.50;63.80;;;;;;1807735;79;21087;-58
2022/04/27 17:50:11;;;;;;;12.58;4.58;;;18.40;63.80;;;;;;1807653;79;21091;-58
2022/04/27 17:52:41;;;;;;;9.05;5.35;;;18.30;63.90;;;;;;1807807;79;21110;-59
2022/04/27 17:55:12;;;;;;;12.00;5.75;;;18.30;64.20;;;;;;1807734;79;21047;-58
2022/04/27 17:57:42;;;;;;;11.38;4.58;;;18.20;64.30;;;;;;1807689;79;21137;-58
2022/04/27 18:00:14;;;;;;;9.00;5.10;;;18.20;64.40;;;;;;1807577;79;21099;-58
2022/04/27 18:02:44;;;;;;;16.15;6.05;;;18.20;64.50;;;;;;1807689;79;21055;-58
2022/04/27 18:05:15;;;;;;;10.82;6.78;;;18.10;64.70;;;;;;1807686;79;21051;-58
2022/04/27 18:07:45;;;;;;;27.65;8.03;;;18.10;64.80;;;;;;1807789;79;21114;-59